This is the latest recevied weather packets stored in our database for station/object IZ3ZOD-13. If no packets are shown the sender has not sent any weather packets the latest 10 day(s).
| Time | Temp. | Humidity | Pressure | Rain* | Wind** | Luminosity | Snow |
|---|---|---|---|---|---|---|---|
| 1777254244 | 13.89° C | 94% | 1018 hPa | 0 mm | - | - | - |
| 1777253763 | 14.44° C | 93% | 1018 hPa | 0 mm | - | - | - |
| 1777252804 | 15° C | 94% | 1018.1 hPa | 0 mm | - | - | - |
| 1777248963 | 15.56° C | 91% | 1018.1 hPa | 0 mm | - | - | - |
| 1777248003 | 16.11° C | 90% | 1018 hPa | 0 mm | - | - | - |
| 1777247897 | 16.11° C | 90% | 1018.1 hPa | 0 mm | - | - | - |
| 1777247043 | 15.56° C | 89% | 1018 hPa | 0 mm | - | - | - |
| 1777246563 | 15.56° C | 88% | 1018 hPa | 0 mm | - | - | - |
| 1777242003 | 16.11° C | 82% | 1017.8 hPa | 0 mm | - | - | - |
| 1777240934 | 16.67° C | 80% | 1017.9 hPa | 0 mm | - | - | - |
| 1777239843 | 16.67° C | 80% | 1017.6 hPa | 0 mm | - | - | - |
| 1777238297 | 17.22° C | 77% | 1017.7 hPa | 0 mm | - | - | - |
| 1777237923 | 17.22° C | 76% | 1017.7 hPa | 0 mm | - | - | - |
| 1777235523 | 18.33° C | 72% | 1017.6 hPa | 0 mm | - | - | - |
| 1777230964 | 18.89° C | 72% | 1017.2 hPa | 0 mm | - | - | - |
| 1777229763 | 20° C | 70% | 1016.9 hPa | 0 mm | - | - | - |
| 1777229523 | 20° C | 69% | 1017.1 hPa | 0 mm | - | - | - |
| 1777225683 | 21.67° C | 57% | 1016.4 hPa | 0 mm | - | - | - |
| 1777224003 | 22.22° C | 53% | 1016.2 hPa | 0 mm | - | - | - |
| 1777223763 | 22.78° C | 55% | 1016.4 hPa | 0 mm | - | - | - |
| 1777219923 | 25° C | 49% | 1016.4 hPa | 0 mm | - | - | - |
| 1777219443 | 25° C | 50% | 1016.4 hPa | 0 mm | - | - | - |
| 1777215493 | 26.11° C | 44% | 1016.6 hPa | 0 mm | - | - | - |
| 1777215123 | 26.11° C | 44% | 1016.5 hPa | 0 mm | - | - | - |
| 1777212244 | 25.56° C | 44% | 1016.8 hPa | 0 mm | - | - | - |
* Rain latest hour (hover to see other rain measurements)
** Current wind speed in m/s (hover to see current wind gust speed)